Terminal Aerodrome Forecast
Issued by NWS

Home | Current Version | Previous Version | Text Only | Print | Product List | Glossary On
Versions: 1 2 3 4 5 6 7 8 9 10 11 12 13 14
000
FTUS42 KTBW 191736
TAFRSW
TAF
KRSW 191736Z 1918/2018 22005KT P6SM SCT040 SCT250
     FM200200 20003KT P6SM SCT250
     FM200800 00000KT 4SM BR SCT005 SCT250
      TEMPO 2009/2013 2SM BR
     FM201400 17007KT P6SM SCT015 SCT100 BKN250=

USA.gov is the U.S. government's official web portal to all federal, state and local government web resources and services.